Thursday, July 19, 2018, 5:56 AM GMT
Back to Local

CYCX, Gagetown Can-Mil

Location: , , Canada Lat: 45.833
Local Time: 5:56 AM GMT ( 5:56 GMT) Lon: -66.433
Time Zone: GMT Elev: 167 ft

Show me the last for .
Show Decoded

2018-07-19 05:00 METAR CYCX 190500Z 32004KT 15SM SKC 13/09 A2992 RMK DA137FT SLP132 =
2018-07-19 04:00 METAR CYCX 190400Z 30006KT 15SM SKC 14/09 A2991 RMK DA272FT SLP129 =
2018-07-19 03:00 METAR CYCX 190300Z 31005KT 15SM SKC 15/10 A2990 RMK DA372FT SLP124 =
2018-07-19 02:00 METAR CYCX 190200Z 31005KT 15SM SKC 16/11 A2988 RMK DA564FT SLP119 =
2018-07-19 01:00 METAR CYCX 190100Z 29005KT 15SM FEW068 18/12 A2986 RMK AC1 DA761FT SLP113 =
2018-07-19 00:00 METAR CYCX 190000Z 28004KT 15SM FEW068 20/12 A2984 RMK AC1 DA1005FT SLP104 =
2018-07-18 23:00 METAR CYCX 182300Z 30008KT 15SM FEW062 22/12 A2982 RMK SC1 DA1283FT SLP099 =
2018-07-18 22:00 METAR CYCX 182200Z 30012KT 15SM FEW062 23/13 A2980 RMK CU2 DA1426FT SLP093 =
2018-07-18 21:00 METAR CYCX 182100Z 31009KT 15SM SCT050 24/14 A2980 RMK CU4 DA1546FT SLP091 =
2018-07-18 20:00 METAR CYCX 182000Z 31012KT 15SM SCT045 24/14 A2979 RMK CU4 DA1573FT SLP088 =
2018-07-18 19:00 METAR CYCX 181900Z 32012KT 270V330 15SM BKN040 24/15 A2978 RMK SC5 DA1598FT
                 SLP084 =
2018-07-18 18:00 METAR CYCX 181800Z 30009KT 270V330 15SM BKN035 24/17 A2977 RMK SC6 DA1672FT
                 SLP081 =
2018-07-18 17:00 METAR CYCX 181700Z 27008KT 15SM BKN024 23/16 A2976 RMK SC5 DA1547FT SLP079 =
2018-07-18 16:00 METAR CYCX 181600Z 29010KT 260V320 10SM BKN020 22/17 A2976 RMK SC6 DA1455FT
                 SLP078 =
2018-07-18 15:00 METAR CYCX 181500Z 31010KT 10SM SCT015 OVC024 22/19 A2975 RMK SC3SC5 DA1485FT
                 SLP073 =
2018-07-18 14:00 METAR CYCX 181400Z 32007KT 10SM FEW006 OVC009 20/18 A2974 RMK SF2SC6 DA1300FT
                 SLP072 =
2018-07-18 13:00 METAR CYCX 181300Z 27006KT 220V290 10SM FEW006 OVC020 21/20 A2972 RMK SF2SC6
                 DA1406FT SLP065 =
2018-07-18 12:00 METAR CYCX 181200Z 21004KT 10SM FEW004 OVC012 20/19 A2971 RMK SF2SC6 DA1331FT
                 SLP060 =
2018-07-18 11:37 METAR CYCX 181137Z 22004KT 10SM SCT003 OVC014 20/19 A2970 RMK SF3SC5 DA1291FT
                 SLP059 =
2018-07-18 11:00 METAR CYCX 181100Z 21005KT 5SM BR OVC002 19/19 A2970 RMK ST8 DA1228FT SLP058 =
2018-07-18 10:34 METAR CYCX 181034Z 21006KT 2SM BR OVC002 19/18 A2969 RMK ST8 DA1224FT SLP055 =
2018-07-18 10:00 METAR CYCX 181000Z 22007KT 10SM OVC003 19/18 A2969 RMK ST8 DA1208FT FG BANK E
                 SLP056 =
2018-07-18 09:28 METAR CYCX 180928Z 22006KT 9SM BKN006 OVC020 19/18 A2968 RMK SF6SC2 DA1207FT
                 SLP050 =
2018-07-18 09:00 METAR CYCX 180900Z 19006KT 160V220 9SM SCT003 OVC020 19/18 A2968 RMK SF3SC5
                 DA1207FT SLP051 =
2018-07-18 08:36 METAR CYCX 180836Z 19005KT 9SM SCT003 OVC020 19/18 A2968 RMK SF3SC5 DA1196FT
                 SLP050 =
2018-07-18 08:00 METAR CYCX 180800Z 22006KT 6SM -DZ BR SCT007 OVC020 19/18 A2968 RMK SF3SC5
                 DA1231FT SLP051 =
2018-07-18 07:49 METAR CYCX 180749Z 21007KT 4SM -DZ BR SCT007 OVC020 19/18 A2968 RMK SF3SC5
                 DA1231FT SLP051 =
2018-07-18 07:00 METAR CYCX 180700Z 19006KT 150V210 4SM -RA BR OVC007 19/18 A2969 RMK SF8
                 DA1194FT CIG VRB 5-9 SLP056 =
2018-07-18 06:53 METAR CYCX 180653Z 18006KT 150V210 5SM -RA BR OVC007 19/18 A2970 RMK SF8
                 DA1194FT CIG VRB 5-9 SLP057 =
2018-07-18 06:00 METAR CYCX 180600Z 20005KT 5SM -RA BR OVC003 19/18 A2970 RMK SF8 DA1171FT CIG
                 VRB 2-5 SLP059 =

Support USWX by starting your Amazon purchase here.